KLMT/LMT METAR and TAF weather

Enter ICAO airport designator
Station Type Date Time Source
KLMT METAR 2019/02/23 00:53 UTC NOAA

KLMT 230053Z 20004KT 10SM CLR 02/M11 A3002 RMK AO2 SLPNO T00221111


Station Type Date Time Source
KLMT Decoded METAR 2019/02/23 00:53 UTC NOAA

KLAMATH FALLS INTERNATIONAL AIRPORT, OR, United States (KLMT) 42-09N 121-43W 1246M
Feb 22, 2019 - 07:53 PM EST / 2019.02.23 0053 UTC
Wind: from the SSW (200 degrees) at 5 MPH (4 KT):0
Visibility: 10 mile(s):0
Sky conditions: clear
Temperature: 36.0 F (2.2 C)
Dew Point: 12.0 F (-11.1 C)
Relative Humidity: 36%
Pressure (altimeter): 30.02 in. Hg (1016 hPa)
ob: KLMT 230053Z 20004KT 10SM CLR 02/M11 A3002 RMK AO2 SLPNO T00221111
cycle: 1

Station Type Date Time Source
KLMT TAF 2019/02/22 18:34 UTC NOAA

TAF KLMT 221731Z 2218/2318 00000KT P6SM SKC
FM222200 18004KT P6SM SCT100


Example: see airport list